Time;durP1;ratioP1;P1;durP2;ratioP2;P2;SDS_P1;SDS_P2;PMS_P1;PMS_P2;Temp;Humidity;BMP_temperature;BMP_pressure;BME280_temperature;BME280_humidity;BME280_pressure;Samples;Min_cycle;Max_cycle;Signal;HPM_P1;HPM_P2
2022/08/02 00:00:15;;;;;;;1.20;1.10;;;30.40;1.00;;;;;;5112827;28;20034;-45
2022/08/02 00:02:43;;;;;;;2.03;1.05;;;30.20;1.00;;;;;;5113535;28;20023;-48
2022/08/02 00:05:09;;;;;;;1.20;1.10;;;30.30;1.00;;;;;;5092811;28;20023;-45
2022/08/02 00:07:35;;;;;;;2.45;1.20;;;30.30;1.00;;;;;;5113342;28;20019;-46
2022/08/02 00:10:01;;;;;;;1.83;1.15;;;30.30;1.00;;;;;;5112461;28;20362;-46
2022/08/02 00:12:27;;;;;;;1.27;1.15;;;30.30;1.00;;;;;;5113417;28;20031;-45
2022/08/02 00:14:52;;;;;;;1.52;1.17;;;30.20;1.00;;;;;;5112556;28;20054;-46
2022/08/02 00:17:18;;;;;;;1.38;1.20;;;30.30;1.00;;;;;;5113315;28;20388;-45
2022/08/02 00:19:45;;;;;;;1.08;1.05;;;30.10;1.00;;;;;;5112308;28;20035;-46
2022/08/02 00:22:10;;;;;;;1.25;1.10;;;30.20;1.00;;;;;;5113024;28;20446;-45
2022/08/02 00:24:36;;;;;;;3.15;1.20;;;30.20;1.00;;;;;;5112293;28;20031;-45
2022/08/02 00:27:02;;;;;;;1.10;1.10;;;30.20;1.00;;;;;;5112973;28;20027;-47
2022/08/02 00:29:29;;;;;;;1.90;1.38;;;30.20;1.00;;;;;;5112194;28;20020;-46
2022/08/02 00:31:56;;;;;;;1.27;1.20;;;30.00;1.00;;;;;;5113135;28;20038;-45
2022/08/02 00:34:21;;;;;;;1.13;1.08;;;30.10;1.00;;;;;;5110667;28;20114;-45
2022/08/02 00:36:47;;;;;;;1.40;1.13;;;30.10;1.00;;;;;;5112052;28;20106;-45
2022/08/02 00:39:12;;;;;;;2.55;1.30;;;30.10;1.00;;;;;;5112320;28;20044;-47
2022/08/02 00:41:49;;;;;;;0.98;0.90;;;30.10;1.00;;;;;;5112369;28;20443;-45
2022/08/02 00:44:15;;;;;;;1.20;1.10;;;30.00;1.00;;;;;;5111981;28;20020;-45
2022/08/02 00:46:42;;;;;;;1.73;1.38;;;30.00;1.00;;;;;;5112443;28;20036;-46
2022/08/02 00:49:09;;;;;;;1.10;1.00;;;30.00;1.00;;;;;;5111107;28;20028;-46
2022/08/02 00:51:34;;;;;;;1.25;1.10;;;30.00;1.00;;;;;;5112608;28;20103;-48
2022/08/02 00:54:00;;;;;;;2.03;1.35;;;30.00;1.00;;;;;;5111664;28;20426;-46
2022/08/02 00:56:26;;;;;;;1.52;1.38;;;30.00;1.00;;;;;;5094175;28;20054;-45
2022/08/02 00:58:51;;;;;;;3.60;1.30;;;30.00;1.00;;;;;;5111711;28;20023;-48
2022/08/02 01:01:17;;;;;;;1.50;1.40;;;30.00;1.00;;;;;;5111184;28;20028;-48
2022/08/02 01:03:43;;;;;;;1.70;1.35;;;29.90;1.00;;;;;;5112492;28;20149;-45
2022/08/02 01:06:09;;;;;;;2.85;1.45;;;29.80;1.00;;;;;;5091526;28;20537;-45
2022/08/02 01:08:39;;;;;;;2.28;1.48;;;29.80;1.00;;;;;;5112236;28;20038;-45
2022/08/02 01:11:05;;;;;;;1.40;1.30;;;29.90;1.00;;;;;;5108352;28;20098;-45
2022/08/02 01:13:31;;;;;;;2.38;1.23;;;29.80;1.00;;;;;;5112220;28;20176;-45
2022/08/02 01:16:19;;;;;;;2.10;1.30;;;29.80;1.00;;;;;;5111797;28;20031;-45
2022/08/02 01:18:51;;;;;;;3.35;1.23;;;29.80;1.00;;;;;;5112641;28;20031;-46
2022/08/02 01:21:32;;;;;;;1.98;1.20;;;29.70;1.00;;;;;;5109919;28;20509;-46
2022/08/02 01:24:15;;;;;;;3.20;1.50;;;29.70;1.00;;;;;;5100481;28;20028;-46
2022/08/02 01:26:53;;;;;;;4.18;1.75;;;29.70;1.00;;;;;;5112060;28;20035;-45
2022/08/02 01:29:30;;;;;;;2.72;1.80;;;29.70;1.00;;;;;;5111406;28;20028;-45
2022/08/02 01:32:15;;;;;;;4.15;1.88;;;29.70;1.00;;;;;;5099169;28;20345;-45
2022/08/02 01:34:48;;;;;;;2.80;1.50;;;29.60;1.00;;;;;;5110914;28;20481;-47
2022/08/02 01:37:19;;;;;;;1.95;1.30;;;29.60;1.00;;;;;;5112081;28;20106;-45
2022/08/02 01:39:48;;;;;;;4.40;1.80;;;29.60;1.00;;;;;;5111332;28;20024;-50
2022/08/02 01:42:14;;;;;;;1.88;1.50;;;29.60;1.00;;;;;;5111686;28;20039;-45
2022/08/02 01:44:42;;;;;;;2.15;1.38;;;29.40;1.00;;;;;;5113513;28;20491;-47
2022/08/02 01:47:20;;;;;;;1.60;1.48;;;29.40;1.00;;;;;;5116142;28;20024;-45
2022/08/02 01:49:49;;;;;;;2.10;1.52;;;29.30;1.00;;;;;;5115757;28;20024;-47
2022/08/02 01:52:22;;;;;;;1.90;1.80;;;29.30;1.00;;;;;;5116065;28;20034;-48
2022/08/02 01:55:11;;;;;;;2.47;1.90;;;29.30;1.00;;;;;;5113315;28;20047;-48
2022/08/02 01:57:48;;;;;;;2.35;2.15;;;29.30;1.00;;;;;;5115429;28;20020;-45
2022/08/02 02:00:14;;;;;;;2.30;1.77;;;29.30;1.00;;;;;;5107434;28;20034;-45
2022/08/02 02:02:44;;;;;;;4.03;2.10;;;29.30;1.00;;;;;;5115287;28;20035;-46
2022/08/02 02:05:13;;;;;;;2.60;1.90;;;29.30;1.00;;;;;;5115109;28;20372;-48
2022/08/02 02:07:40;;;;;;;2.10;1.90;;;29.20;1.00;;;;;;5115909;28;20039;-46
2022/08/02 02:10:09;;;;;;;3.33;1.92;;;29.20;1.00;;;;;;5115068;28;20028;-45
2022/08/02 02:12:38;;;;;;;3.30;2.13;;;29.20;1.00;;;;;;5115633;28;20107;-46
2022/08/02 02:15:05;;;;;;;2.47;1.80;;;29.20;1.00;;;;;;5114475;28;20526;-46
2022/08/02 02:17:32;;;;;;;2.15;1.77;;;29.20;1.00;;;;;;5103954;28;20131;-46
2022/08/02 02:20:00;;;;;;;3.53;2.10;;;29.20;1.00;;;;;;5106218;28;20016;-45
2022/08/02 02:22:25;;;;;;;2.58;1.90;;;29.20;1.00;;;;;;5100560;28;20024;-47
2022/08/02 02:24:51;;;;;;;1.98;1.65;;;29.20;1.00;;;;;;5099961;28;20439;-48
2022/08/02 02:31:28;;;;;;;4.18;1.98;;;29.20;1.00;;;;;;5110798;28;20023;-45
2022/08/02 02:34:36;;;;;;;3.42;1.90;;;29.20;1.00;;;;;;5102256;28;20032;-45
2022/08/02 02:37:04;;;;;;;3.85;2.00;;;29.10;1.00;;;;;;5110853;28;20036;-45
2022/08/02 02:39:32;;;;;;;2.22;1.85;;;29.00;1.00;;;;;;5096933;28;20028;-44
2022/08/02 02:42:02;;;;;;;4.07;2.28;;;29.00;1.00;;;;;;5081995;28;20497;-45
2022/08/02 02:44:29;;;;;;;2.05;1.88;;;29.10;1.00;;;;;;5110889;28;20066;-45
2022/08/02 02:46:56;;;;;;;2.97;2.65;;;29.00;1.00;;;;;;5096300;28;20102;-45
2022/08/02 02:49:24;;;;;;;4.88;2.10;;;29.00;1.00;;;;;;5096672;28;20418;-46
2022/08/02 02:51:50;;;;;;;3.17;2.47;;;29.00;1.00;;;;;;5103354;28;20028;-46
2022/08/02 02:54:17;;;;;;;2.00;1.77;;;29.00;1.00;;;;;;5111526;28;20035;-45
2022/08/02 02:56:44;;;;;;;2.92;2.17;;;29.00;1.00;;;;;;5112985;28;20042;-47
2022/08/02 02:59:12;;;;;;;3.45;2.25;;;29.00;1.00;;;;;;5114924;28;20072;-47
2022/08/02 03:01:38;;;;;;;4.32;2.17;;;28.90;1.00;;;;;;5114019;28;20024;-45
2022/08/02 03:04:06;;;;;;;3.58;2.20;;;28.90;1.00;;;;;;5114006;28;20024;-47
2022/08/02 03:06:34;;;;;;;4.97;2.30;;;28.90;1.00;;;;;;5113342;28;20038;-45
2022/08/02 03:09:00;;;;;;;2.90;1.95;;;29.00;1.00;;;;;;5112031;28;20024;-45
2022/08/02 03:11:28;;;;;;;4.50;2.38;;;28.80;1.00;;;;;;5108919;28;20077;-45
2022/08/02 03:13:59;;;;;;;3.97;2.20;;;28.80;1.00;;;;;;5085754;28;20028;-45
2022/08/02 03:16:28;;;;;;;4.05;2.22;;;28.90;1.00;;;;;;5108364;28;20031;-45
2022/08/02 03:18:56;;;;;;;3.55;2.35;;;28.90;1.00;;;;;;5111966;28;20032;-45
2022/08/02 03:21:22;;;;;;;2.70;2.10;;;28.90;1.00;;;;;;5113585;28;20023;-46
2022/08/02 03:23:48;;;;;;;3.72;2.25;;;28.80;1.00;;;;;;5114343;28;20031;-45
2022/08/02 03:26:14;;;;;;;2.53;2.30;;;28.90;1.00;;;;;;5113685;28;20020;-46
2022/08/02 03:28:40;;;;;;;2.72;2.17;;;28.90;1.00;;;;;;5113497;28;20047;-45
2022/08/02 03:31:06;;;;;;;4.55;1.77;;;28.90;1.00;;;;;;5113512;28;20019;-45
2022/08/02 03:33:34;;;;;;;5.25;2.40;;;28.90;1.00;;;;;;5114147;28;20024;-45
2022/08/02 03:36:09;;;;;;;2.75;2.50;;;28.80;1.00;;;;;;5113657;28;20110;-46
2022/08/02 03:38:36;;;;;;;4.80;2.20;;;28.80;1.00;;;;;;5113371;28;20038;-46
2022/08/02 03:41:03;;;;;;;4.45;2.13;;;28.60;1.00;;;;;;5113316;28;20030;-45
2022/08/02 03:43:29;;;;;;;4.80;2.42;;;28.80;1.00;;;;;;5113802;28;20540;-46
2022/08/02 03:45:57;;;;;;;4.32;2.33;;;28.80;1.00;;;;;;5113203;28;20024;-45
2022/08/02 03:48:25;;;;;;;2.55;2.30;;;28.70;1.00;;;;;;5113785;28;20028;-46
2022/08/02 03:50:51;;;;;;;2.60;2.35;;;28.80;1.00;;;;;;5094714;28;20042;-45
2022/08/02 03:53:17;;;;;;;3.03;2.28;;;28.60;1.00;;;;;;5113816;28;20035;-46
2022/08/02 03:55:43;;;;;;;4.03;2.25;;;28.70;1.00;;;;;;5113666;28;20051;-47
2022/08/02 03:58:16;;;;;;;3.97;2.25;;;28.70;1.00;;;;;;5113075;28;20390;-46
2022/08/02 04:00:41;;;;;;;4.15;2.50;;;28.70;1.00;;;;;;5113966;28;20122;-45
2022/08/02 04:03:07;;;;;;;4.70;3.00;;;28.70;1.00;;;;;;5112881;28;20055;-45
2022/08/02 04:05:33;;;;;;;6.10;2.67;;;28.60;1.00;;;;;;5113587;28;20028;-46
2022/08/02 04:07:58;;;;;;;5.78;3.00;;;28.60;1.00;;;;;;5109329;28;20023;-48
2022/08/02 04:10:24;;;;;;;4.30;2.80;;;28.60;1.00;;;;;;5113490;28;20030;-46
2022/08/02 04:12:49;;;;;;;3.72;3.15;;;28.50;1.00;;;;;;5112298;28;20436;-47
2022/08/02 04:15:15;;;;;;;4.85;3.88;;;28.50;1.00;;;;;;5113380;28;20040;-45
2022/08/02 04:17:49;;;;;;;5.03;3.47;;;28.30;1.00;;;;;;5112955;28;20024;-46
2022/08/02 04:20:21;;;;;;;5.90;3.83;;;28.40;1.00;;;;;;5113653;28;20036;-45
2022/08/02 04:22:53;;;;;;;8.07;3.38;;;28.30;1.00;;;;;;5112774;28;20114;-45
2022/08/02 04:25:20;;;;;;;6.43;4.78;;;28.20;1.00;;;;;;5113230;28;20028;-45
2022/08/02 04:27:46;;;;;;;10.68;3.95;;;28.20;1.00;;;;;;5112428;28;20024;-48
2022/08/02 04:30:14;;;;;;;5.75;5.00;;;28.20;1.00;;;;;;5113138;28;20026;-45
2022/08/02 04:32:41;;;;;;;8.02;5.40;;;28.10;1.00;;;;;;5112429;28;20365;-48
2022/08/02 04:35:07;;;;;;;11.80;5.68;;;28.10;1.00;;;;;;5113131;28;20042;-48
2022/08/02 04:37:34;;;;;;;5.95;5.20;;;28.20;1.00;;;;;;5110966;28;20118;-45
2022/08/02 04:39:59;;;;;;;9.00;4.85;;;28.10;1.00;;;;;;5112962;28;20465;-45
2022/08/02 04:42:25;;;;;;;6.55;4.35;;;28.10;1.00;;;;;;5084269;28;20044;-46
2022/08/02 04:44:52;;;;;;;6.93;5.45;;;28.20;1.00;;;;;;5108256;28;20069;-47
2022/08/02 04:47:19;;;;;;;5.90;4.85;;;28.00;1.00;;;;;;5111684;28;20026;-45
2022/08/02 04:49:45;;;;;;;7.63;5.40;;;28.10;1.00;;;;;;5112972;28;20024;-46
2022/08/02 04:52:11;;;;;;;6.38;5.20;;;28.00;1.00;;;;;;5110100;28;20039;-50
2022/08/02 04:54:37;;;;;;;6.18;5.00;;;27.80;1.00;;;;;;5112527;28;20032;-46
2022/08/02 04:57:53;;;;;;;6.38;5.30;;;27.90;1.00;;;;;;5111915;28;20034;-45
2022/08/02 04:59:48;;;;;;;7.05;5.43;;;28.00;1.00;;;;;;5100816;28;20393;-45
2022/08/02 05:02:14;;;;;;;7.15;4.85;;;27.60;1.00;;;;;;5111388;28;20039;-46
2022/08/02 05:04:39;;;;;;;9.55;5.70;;;27.60;1.00;;;;;;5107470;28;20066;-47
2022/08/02 05:07:05;;;;;;;5.82;4.65;;;27.70;1.00;;;;;;5111280;28;20424;-47
2022/08/02 05:09:31;;;;;;;8.00;4.53;;;27.80;1.00;;;;;;5112389;28;20044;-47
2022/08/02 05:11:56;;;;;;;6.75;4.30;;;27.70;1.00;;;;;;5111755;28;20035;-50
2022/08/02 05:14:22;;;;;;;9.15;4.72;;;27.70;1.00;;;;;;5112261;28;20032;-45
2022/08/02 05:16:47;;;;;;;6.63;5.07;;;27.50;1.00;;;;;;5111778;28;20580;-47
2022/08/02 05:19:13;;;;;;;7.03;4.22;;;27.40;1.00;;;;;;5093257;28;20055;-46
2022/08/02 05:21:39;;;;;;;8.45;4.18;;;27.40;1.00;;;;;;5111266;28;20030;-45
2022/08/02 05:24:05;;;;;;;5.53;4.18;;;27.60;1.00;;;;;;5112054;28;20028;-46
2022/08/02 05:26:31;;;;;;;4.53;3.90;;;27.50;1.00;;;;;;5111166;28;20415;-45
2022/08/02 05:28:56;;;;;;;8.25;4.53;;;27.50;1.00;;;;;;5112181;28;20102;-45
2022/08/02 05:31:22;;;;;;;7.05;3.97;;;27.30;1.00;;;;;;5092962;28;20028;-46
2022/08/02 05:33:47;;;;;;;4.22;3.55;;;27.30;1.00;;;;;;5112127;28;20499;-45
2022/08/02 05:36:13;;;;;;;7.43;4.22;;;27.30;1.00;;;;;;5109418;28;20054;-44
2022/08/02 05:38:38;;;;;;;9.23;4.47;;;27.30;1.00;;;;;;5093574;28;20406;-45
2022/08/02 05:41:05;;;;;;;9.13;3.78;;;27.30;1.00;;;;;;5091570;28;20028;-45
2022/08/02 05:43:31;;;;;;;8.30;3.60;;;27.30;1.00;;;;;;5096454;28;20047;-45
2022/08/02 05:45:57;;;;;;;6.55;3.47;;;27.40;1.00;;;;;;5112071;28;20489;-45
2022/08/02 05:48:22;;;;;;;7.90;3.85;;;27.30;1.00;;;;;;5111203;28;20043;-45
2022/08/02 05:50:53;;;;;;;8.57;3.58;;;27.20;1.00;;;;;;5110635;28;20034;-46
2022/08/02 05:53:43;;;;;;;9.85;3.30;;;27.40;1.00;;;;;;5111057;28;20031;-45
2022/08/02 05:56:31;;;;;;;9.18;2.92;;;27.30;1.00;;;;;;5111099;28;20032;-45
2022/08/02 05:59:19;;;;;;;5.28;3.10;;;27.20;1.00;;;;;;5099686;28;20039;-47
2022/08/02 06:01:50;;;;;;;7.30;2.50;;;27.30;1.00;;;;;;5093151;28;20392;-45
2022/08/02 06:04:25;;;;;;;8.02;2.42;;;27.20;1.00;;;;;;5111204;28;20035;-45
2022/08/02 06:06:55;;;;;;;4.35;2.30;;;27.10;1.00;;;;;;5110005;28;20053;-45
2022/08/02 06:09:22;;;;;;;7.43;2.38;;;27.00;1.00;;;;;;5111804;28;20020;-45
2022/08/02 06:11:51;;;;;;;5.95;2.30;;;27.10;1.00;;;;;;5107418;28;20472;-46
2022/08/02 06:14:17;;;;;;;5.15;2.10;;;27.20;1.00;;;;;;5110519;28;20035;-45
2022/08/02 06:16:44;;;;;;;3.45;2.05;;;27.20;1.00;;;;;;5111256;28;20078;-45
2022/08/02 06:19:12;;;;;;;4.22;1.73;;;27.30;1.00;;;;;;5111501;28;20065;-49
2022/08/02 06:21:41;;;;;;;4.30;1.88;;;27.30;1.00;;;;;;5110755;28;20028;-45
2022/08/02 06:24:12;;;;;;;6.20;1.55;;;27.40;1.00;;;;;;5111562;28;20073;-45
2022/08/02 06:26:40;;;;;;;6.80;1.48;;;27.20;1.00;;;;;;5110616;28;20024;-45
2022/08/02 06:29:06;;;;;;;3.85;1.45;;;27.30;1.00;;;;;;5111521;28;20027;-45
2022/08/02 06:31:31;;;;;;;3.63;1.40;;;27.10;1.00;;;;;;5114393;28;20012;-45
2022/08/02 06:33:57;;;;;;;1.50;1.40;;;27.20;1.00;;;;;;5110129;28;20508;-46
2022/08/02 06:36:36;;;;;;;11.40;2.35;;;27.30;1.00;;;;;;5115251;28;20030;-45
2022/08/02 06:39:04;;;;;;;6.43;1.40;;;27.20;1.00;;;;;;5110455;28;20055;-45
2022/08/02 06:41:41;;;;;;;6.45;1.45;;;27.30;1.00;;;;;;5114608;28;20028;-49
2022/08/02 06:44:07;;;;;;;6.07;1.23;;;27.40;1.00;;;;;;5110272;28;20106;-45
2022/08/02 06:46:34;;;;;;;6.15;1.40;;;27.20;1.00;;;;;;5114459;28;20111;-49
2022/08/02 06:49:00;;;;;;;5.35;1.40;;;27.30;1.00;;;;;;5114761;28;20035;-47
2022/08/02 06:51:26;;;;;;;4.90;1.58;;;27.30;1.00;;;;;;5114831;28;20346;-45
2022/08/02 06:53:52;;;;;;;5.45;1.13;;;27.40;1.00;;;;;;5114158;28;20028;-47
2022/08/02 06:56:18;;;;;;;1.27;1.17;;;27.50;1.00;;;;;;5114828;28;20035;-45
2022/08/02 06:58:44;;;;;;;5.13;1.70;;;27.50;1.00;;;;;;5114198;28;20137;-45
2022/08/02 07:01:10;;;;;;;2.42;1.10;;;27.60;1.00;;;;;;5114737;28;20114;-45
2022/08/02 07:03:37;;;;;;;4.30;1.42;;;27.60;1.00;;;;;;5113541;28;20020;-45
2022/08/02 07:09:24;;;;;;;4.57;1.02;;;27.60;1.00;;;;;;5114133;28;20078;-46
2022/08/02 07:11:50;;;;;;;7.13;2.10;;;27.60;1.00;;;;;;5112573;28;20422;-45
2022/08/02 07:14:16;;;;;;;5.57;1.30;;;27.60;1.00;;;;;;5111839;28;20032;-45
2022/08/02 07:16:41;;;;;;;4.55;1.50;;;27.70;1.00;;;;;;5113794;28;20028;-47
2022/08/02 07:19:07;;;;;;;6.20;1.63;;;27.80;1.00;;;;;;5113998;28;20036;-48
2022/08/02 07:21:32;;;;;;;13.00;1.65;;;27.80;1.00;;;;;;5114501;28;20059;-46
2022/08/02 07:23:58;;;;;;;6.90;1.70;;;27.80;1.00;;;;;;5095512;28;20073;-46
2022/08/02 07:26:23;;;;;;;5.38;1.33;;;27.80;1.00;;;;;;5114424;28;20036;-46
2022/08/02 07:28:49;;;;;;;4.97;1.20;;;27.80;1.00;;;;;;5113431;28;20465;-47
2022/08/02 07:31:15;;;;;;;1.50;1.40;;;27.90;1.00;;;;;;5114718;28;20480;-45
2022/08/02 07:33:40;;;;;;;4.13;1.48;;;27.70;1.00;;;;;;5112893;28;20058;-46
2022/08/02 07:36:07;;;;;;;4.47;1.48;;;27.80;1.00;;;;;;5113662;28;20077;-45
2022/08/02 07:38:33;;;;;;;6.82;1.80;;;27.80;1.00;;;;;;5113154;28;20016;-48
2022/08/02 07:40:59;;;;;;;12.50;1.85;;;28.00;1.00;;;;;;5113234;28;20152;-47
2022/08/02 07:43:24;;;;;;;2.47;1.30;;;28.00;1.00;;;;;;5112651;28;20036;-45
2022/08/02 07:45:50;;;;;;;5.75;1.60;;;28.10;1.00;;;;;;5114245;28;20030;-48
2022/08/02 07:48:15;;;;;;;5.53;1.50;;;28.00;1.00;;;;;;5094888;28;20020;-45
2022/08/02 07:50:41;;;;;;;3.60;1.55;;;28.00;1.00;;;;;;5113868;28;20023;-45
2022/08/02 07:53:07;;;;;;;4.97;1.90;;;28.10;1.00;;;;;;5113058;28;20031;-45
2022/08/02 07:55:32;;;;;;;1.98;1.10;;;28.10;1.00;;;;;;5114071;28;20048;-45
2022/08/02 07:57:58;;;;;;;4.32;1.48;;;28.10;1.00;;;;;;5113621;28;20022;-48
2022/08/02 08:00:23;;;;;;;3.08;1.50;;;28.10;1.00;;;;;;5112928;28;20027;-45
2022/08/02 08:02:49;;;;;;;8.07;1.70;;;28.20;1.00;;;;;;5113211;28;20153;-48
2022/08/02 08:05:15;;;;;;;3.55;1.60;;;28.10;1.00;;;;;;5111596;28;20031;-51
2022/08/02 08:07:41;;;;;;;7.00;1.45;;;28.10;1.00;;;;;;5113790;28;20036;-47
2022/08/02 08:10:07;;;;;;;5.15;1.58;;;28.20;1.00;;;;;;5103404;28;20080;-47
2022/08/02 08:12:32;;;;;;;6.95;1.73;;;28.20;1.00;;;;;;5113511;28;20455;-50
2022/08/02 08:14:58;;;;;;;4.60;1.55;;;28.30;1.00;;;;;;5112513;28;20039;-50
2022/08/02 08:17:23;;;;;;;4.05;1.45;;;28.30;1.00;;;;;;5113559;28;20381;-45
2022/08/02 08:19:49;;;;;;;2.30;1.30;;;28.30;1.00;;;;;;5106491;28;20028;-49
2022/08/02 08:22:15;;;;;;;6.07;1.20;;;28.40;1.00;;;;;;5109443;28;20103;-50
2022/08/02 08:24:41;;;;;;;2.28;1.45;;;28.50;1.00;;;;;;5104488;28;20023;-45
2022/08/02 08:27:09;;;;;;;4.50;1.40;;;28.50;1.00;;;;;;5113161;28;20032;-45
2022/08/02 08:29:35;;;;;;;4.88;2.22;;;28.50;1.00;;;;;;5112350;28;20023;-47
2022/08/02 08:32:00;;;;;;;4.57;2.80;;;28.50;1.00;;;;;;5113097;28;20038;-45
2022/08/02 08:34:30;;;;;;;4.35;2.20;;;28.60;1.00;;;;;;5102603;28;20036;-45
2022/08/02 08:36:55;;;;;;;5.93;1.92;;;28.60;1.00;;;;;;5102410;28;20089;-47
2022/08/02 08:39:21;;;;;;;6.03;1.50;;;28.60;1.00;;;;;;5103856;28;20024;-45
2022/08/02 08:41:46;;;;;;;6.75;1.77;;;28.50;1.00;;;;;;5092484;28;20039;-48
2022/08/02 08:44:12;;;;;;;4.35;1.73;;;28.50;1.00;;;;;;5104845;28;20051;-46
2022/08/02 08:46:51;;;;;;;3.88;1.48;;;28.50;1.00;;;;;;5109150;28;20039;-46
2022/08/02 08:49:29;;;;;;;3.95;1.52;;;28.60;1.00;;;;;;5105158;28;20024;-45
2022/08/02 08:51:57;;;;;;;6.35;2.22;;;28.70;1.00;;;;;;5113039;28;20031;-44
2022/08/02 08:54:28;;;;;;;3.90;1.83;;;28.80;1.00;;;;;;5103938;28;20040;-45
2022/08/02 08:56:55;;;;;;;1.42;1.30;;;28.70;1.00;;;;;;5102261;28;20027;-46
2022/08/02 08:59:21;;;;;;;2.92;1.77;;;28.80;1.00;;;;;;5104056;28;20362;-45
2022/08/02 09:01:49;;;;;;;2.75;1.80;;;28.80;1.00;;;;;;5111772;28;20068;-45
2022/08/02 09:04:14;;;;;;;5.38;1.77;;;28.90;1.00;;;;;;5105153;28;20044;-45
2022/08/02 09:06:40;;;;;;;3.53;1.67;;;29.00;1.00;;;;;;5096984;28;20070;-45
2022/08/02 09:09:06;;;;;;;4.15;1.70;;;29.00;1.00;;;;;;5106254;28;20425;-45
2022/08/02 09:11:31;;;;;;;3.47;1.90;;;28.90;1.00;;;;;;5107924;28;20452;-46
2022/08/02 09:13:59;;;;;;;3.30;1.70;;;28.90;1.00;;;;;;5107940;28;20062;-46
2022/08/02 09:16:35;;;;;;;5.35;2.00;;;28.90;1.00;;;;;;5106273;28;20028;-45
2022/08/02 09:19:22;;;;;;;4.22;1.73;;;29.00;1.00;;;;;;5097539;28;20023;-45
2022/08/02 09:21:59;;;;;;;4.47;1.88;;;29.00;1.00;;;;;;5112305;28;20080;-46
2022/08/02 09:24:24;;;;;;;6.20;1.60;;;29.10;1.00;;;;;;5104138;28;20516;-45
2022/08/02 09:26:51;;;;;;;4.55;1.90;;;29.10;1.00;;;;;;5108043;28;20031;-46
2022/08/02 09:29:20;;;;;;;5.35;2.28;;;29.20;1.00;;;;;;5111692;28;20027;-45
2022/08/02 09:31:46;;;;;;;6.95;2.03;;;29.20;1.00;;;;;;5112353;28;20035;-45
2022/08/02 09:34:50;;;;;;;3.38;1.73;;;29.20;1.00;;;;;;5106349;28;20032;-47
2022/08/02 09:37:26;;;;;;;4.88;1.90;;;29.20;1.00;;;;;;5109739;28;20030;-46
2022/08/02 09:39:53;;;;;;;2.70;1.83;;;29.30;1.00;;;;;;5100593;28;20028;-47
2022/08/02 09:42:18;;;;;;;4.30;1.70;;;29.40;1.00;;;;;;5108894;28;20067;-46
2022/08/02 09:44:58;;;;;;;4.95;2.25;;;29.30;1.00;;;;;;5111259;28;20023;-45
2022/08/02 09:47:26;;;;;;;4.43;1.63;;;29.40;1.00;;;;;;5111869;28;20077;-46
2022/08/02 09:49:56;;;;;;;6.50;2.70;;;29.50;1.00;;;;;;5107462;28;20080;-45
2022/08/02 09:52:29;;;;;;;3.75;2.10;;;29.30;1.00;;;;;;5112137;28;20020;-45
2022/08/02 09:55:01;;;;;;;6.30;1.90;;;29.40;1.00;;;;;;5107274;28;20150;-45
2022/08/02 09:57:28;;;;;;;2.38;2.13;;;29.50;1.00;;;;;;5111909;28;20027;-45
2022/08/02 09:59:56;;;;;;;5.38;1.88;;;29.60;1.00;;;;;;5104828;28;20027;-45
2022/08/02 10:02:21;;;;;;;5.53;2.20;;;29.60;1.00;;;;;;5111770;28;20019;-49
2022/08/02 10:04:47;;;;;;;3.60;1.70;;;29.60;1.00;;;;;;5076514;28;20032;-47
2022/08/02 10:07:13;;;;;;;3.95;1.63;;;29.70;1.00;;;;;;5115850;28;20020;-46
2022/08/02 10:09:40;;;;;;;4.80;1.70;;;29.80;1.00;;;;;;5114975;28;20058;-46
2022/08/02 10:12:06;;;;;;;7.72;2.10;;;29.90;1.00;;;;;;5116051;28;20411;-48
2022/08/02 10:14:34;;;;;;;5.43;2.15;;;29.90;1.00;;;;;;5108721;28;20066;-50
2022/08/02 10:17:00;;;;;;;2.35;2.10;;;29.90;1.00;;;;;;5114565;28;20020;-48
2022/08/02 10:19:26;;;;;;;2.83;1.90;;;30.00;1.00;;;;;;5108934;28;20074;-50
2022/08/02 10:21:56;;;;;;;3.72;1.80;;;30.00;1.00;;;;;;5112892;28;20065;-49
2022/08/02 10:24:26;;;;;;;8.00;2.20;;;30.00;1.00;;;;;;5109891;28;20016;-47
2022/08/02 10:26:53;;;;;;;4.38;2.13;;;29.80;1.00;;;;;;5112654;28;20073;-49
2022/08/02 10:29:22;;;;;;;6.18;2.00;;;29.90;1.00;;;;;;5113808;28;20026;-49
2022/08/02 10:31:54;;;;;;;1.80;1.70;;;30.00;1.00;;;;;;5115429;28;20015;-48
2022/08/02 10:34:29;;;;;;;5.70;2.00;;;30.00;1.00;;;;;;5114894;28;20099;-47
2022/08/02 10:36:56;;;;;;;3.17;1.70;;;30.10;1.00;;;;;;5115170;28;20036;-49
2022/08/02 10:39:21;;;;;;;5.38;1.90;;;30.10;1.00;;;;;;5114514;28;20024;-51
2022/08/02 10:41:51;;;;;;;3.05;2.10;;;30.20;1.00;;;;;;5115067;28;20173;-47
2022/08/02 10:44:28;;;;;;;1.98;1.45;;;30.20;1.00;;;;;;5100274;28;20027;-47
2022/08/02 10:47:12;;;;;;;4.70;2.05;;;30.20;1.00;;;;;;5115185;28;20020;-44
2022/08/02 10:49:54;;;;;;;4.03;1.92;;;30.30;1.00;;;;;;5110945;28;20032;-50
2022/08/02 10:52:29;;;;;;;2.63;1.80;;;30.40;1.00;;;;;;5111882;28;20032;-45
2022/08/02 10:54:58;;;;;;;3.42;1.83;;;30.40;1.00;;;;;;5111454;28;20032;-47
2022/08/02 10:57:29;;;;;;;4.75;1.40;;;30.50;1.00;;;;;;5114961;28;20055;-44
2022/08/02 11:00:08;;;;;;;4.75;2.08;;;30.50;1.00;;;;;;5110683;28;20111;-46
2022/08/02 11:02:37;;;;;;;6.57;1.85;;;30.60;1.00;;;;;;5114001;28;20031;-44
2022/08/02 11:05:06;;;;;;;2.83;1.70;;;30.70;1.00;;;;;;5113436;28;20018;-44
2022/08/02 11:07:44;;;;;;;6.43;1.73;;;30.80;1.00;;;;;;5111081;28;20099;-47
2022/08/02 11:10:25;;;;;;;2.75;1.50;;;30.90;1.00;;;;;;5113708;28;20058;-45
2022/08/02 11:13:09;;;;;;;2.30;1.30;;;31.00;1.00;;;;;;5100029;28;20444;-45
2022/08/02 11:15:49;;;;;;;2.40;1.40;;;31.10;1.00;;;;;;5113537;28;20059;-45
2022/08/02 11:18:15;;;;;;;2.28;1.77;;;31.10;1.00;;;;;;5094242;28;20478;-46
2022/08/02 11:20:41;;;;;;;3.92;1.85;;;31.20;1.00;;;;;;5113401;28;20118;-44
2022/08/02 11:23:32;;;;;;;2.15;1.95;;;31.40;1.00;;;;;;5114471;28;20031;-45
2022/08/02 11:25:58;;;;;;;2.38;1.38;;;31.40;1.00;;;;;;5113605;28;20436;-46
2022/08/02 11:28:24;;;;;;;2.95;1.50;;;31.40;1.00;;;;;;5114355;28;20035;-45
2022/08/02 11:30:57;;;;;;;3.40;1.95;;;31.40;1.00;;;;;;5113235;28;20450;-46
2022/08/02 11:33:32;;;;;;;3.70;1.73;;;31.50;1.00;;;;;;5114568;28;20016;-45
2022/08/02 11:36:06;;;;;;;2.65;1.52;;;31.60;1.00;;;;;;5095327;28;20055;-46
2022/08/02 11:38:31;;;;;;;2.70;1.75;;;31.80;1.00;;;;;;5114074;28;20024;-45
2022/08/02 11:40:57;;;;;;;4.65;2.00;;;31.90;1.00;;;;;;5109033;28;20042;-47
2022/08/02 11:43:29;;;;;;;1.80;1.70;;;32.00;1.00;;;;;;5113784;28;20069;-47
2022/08/02 11:45:56;;;;;;;2.35;1.70;;;32.00;1.00;;;;;;5110557;28;20024;-44
2022/08/02 11:48:35;;;;;;;2.50;1.88;;;32.40;1.00;;;;;;5093804;28;20523;-48
2022/08/02 11:51:09;;;;;;;3.45;2.10;;;32.80;1.00;;;;;;5108030;28;20059;-46
2022/08/02 11:53:56;;;;;;;2.55;1.60;;;32.80;1.00;;;;;;5114050;28;20015;-45
2022/08/02 11:56:29;;;;;;;2.28;2.08;;;33.50;1.00;;;;;;5112540;28;20028;-45
2022/08/02 11:59:07;;;;;;;3.45;2.00;;;33.80;1.00;;;;;;5095432;28;20473;-45
2022/08/02 12:01:35;;;;;;;2.00;1.60;;;34.40;1.00;;;;;;5110242;28;20389;-45
2022/08/02 12:04:02;;;;;;;2.15;2.03;;;34.90;1.00;;;;;;5113771;28;20099;-45
2022/08/02 12:06:29;;;;;;;2.80;1.90;;;35.40;1.00;;;;;;5112410;28;20050;-46
2022/08/02 12:09:07;;;;;;;4.00;1.88;;;35.60;1.00;;;;;;5113546;28;20019;-45
2022/08/02 12:11:35;;;;;;;1.98;1.80;;;37.70;1.00;;;;;;5094499;28;20028;-47
2022/08/02 12:14:01;;;;;;;1.92;1.83;;;38.60;1.00;;;;;;5097954;28;20008;-47
2022/08/02 12:19:26;;;;;;;3.30;2.20;;;40.40;1.00;;;;;;5105991;28;20110;-45
2022/08/02 12:22:13;;;;;;;3.30;2.40;;;42.70;1.00;;;;;;5112274;28;20401;-43
2022/08/02 12:24:40;;;;;;;4.57;2.95;;;44.30;1.00;;;;;;5113101;28;20080;-44
2022/08/02 12:27:06;;;;;;;2.65;2.45;;;45.70;1.00;;;;;;5112728;28;20024;-44
2022/08/02 12:29:37;;;;;;;5.10;3.03;;;46.80;1.00;;;;;;5111417;28;20361;-45
2022/08/02 12:32:03;;;;;;;3.03;2.75;;;46.20;1.00;;;;;;5111732;28;20050;-48
2022/08/02 12:34:31;;;;;;;4.03;2.60;;;45.00;1.00;;;;;;5113398;28;20039;-49
2022/08/02 12:37:05;;;;;;;3.30;2.97;;;43.80;1.00;;;;;;5111568;28;20423;-51
2022/08/02 12:39:48;;;;;;;3.35;3.15;;;42.70;1.00;;;;;;5112268;28;20035;-50
2022/08/02 12:42:14;;;;;;;4.40;3.55;;;41.20;1.00;;;;;;5111984;28;20454;-48
2022/08/02 12:44:56;;;;;;;3.40;3.20;;;40.50;1.00;;;;;;5110195;28;20062;-46
2022/08/02 12:47:22;;;;;;;3.88;3.25;;;40.60;1.00;;;;;;5112437;28;20032;-50
2022/08/02 12:50:19;;;;;;;3.85;3.50;;;40.80;1.00;;;;;;5111948;28;20036;-50
2022/08/02 12:52:46;;;;;;;3.65;3.45;;;40.10;1.00;;;;;;5102549;28;20026;-49
2022/08/02 12:55:20;;;;;;;4.38;4.00;;;39.40;1.00;;;;;;5111797;28;20540;-49
2022/08/02 12:57:59;;;;;;;4.20;3.80;;;39.30;1.00;;;;;;5112841;28;20035;-48
2022/08/02 13:00:52;;;;;;;4.45;4.20;;;39.40;1.00;;;;;;5111902;28;20024;-47
2022/08/02 13:03:19;;;;;;;4.32;4.03;;;39.20;1.00;;;;;;5112875;28;20034;-45
2022/08/02 13:05:45;;;;;;;4.47;4.07;;;39.20;1.00;;;;;;5111132;28;20107;-48
2022/08/02 13:08:11;;;;;;;4.30;4.00;;;39.90;1.00;;;;;;5112536;28;20034;-49
2022/08/02 13:10:37;;;;;;;4.63;3.75;;;40.20;1.00;;;;;;5093529;28;20257;-49
2022/08/02 13:13:03;;;;;;;4.60;4.20;;;40.90;1.00;;;;;;5111637;28;20150;-45
2022/08/02 13:15:29;;;;;;;4.82;4.53;;;42.50;1.00;;;;;;5110663;28;20132;-51
2022/08/02 13:17:55;;;;;;;4.40;4.15;;;44.30;1.00;;;;;;5094112;28;20019;-47